sensor_id;sensor_type;location;lat;lon;timestamp;P1;durP1;ratioP1;P2;durP2;ratioP2
76196;SDS011;64974;53.144;17.962;2023-01-23T00:01:34;20.70;;;10.23;;
76196;SDS011;64974;53.144;17.962;2023-01-23T00:03:59;20.50;;;9.57;;
76196;SDS011;64974;53.144;17.962;2023-01-23T00:06:25;21.55;;;8.52;;
76196;SDS011;64974;53.144;17.962;2023-01-23T00:08:51;19.17;;;8.77;;
76196;SDS011;64974;53.144;17.962;2023-01-23T00:11:18;19.13;;;10.95;;
76196;SDS011;64974;53.144;17.962;2023-01-23T00:13:44;20.95;;;10.27;;
76196;SDS011;64974;53.144;17.962;2023-01-23T00:16:13;16.27;;;9.15;;
76196;SDS011;64974;53.144;17.962;2023-01-23T00:18:40;16.48;;;8.50;;
76196;SDS011;64974;53.144;17.962;2023-01-23T00:21:06;19.25;;;8.77;;
76196;SDS011;64974;53.144;17.962;2023-01-23T00:23:32;31.15;;;13.68;;
76196;SDS011;64974;53.144;17.962;2023-01-23T00:26:02;25.95;;;11.52;;
76196;SDS011;64974;53.144;17.962;2023-01-23T00:28:27;17.40;;;8.18;;
76196;SDS011;64974;53.144;17.962;2023-01-23T00:30:52;19.58;;;9.57;;
76196;SDS011;64974;53.144;17.962;2023-01-23T00:33:18;25.67;;;9.93;;
76196;SDS011;64974;53.144;17.962;2023-01-23T00:35:43;19.07;;;9.70;;
76196;SDS011;64974;53.144;17.962;2023-01-23T00:38:08;18.00;;;8.23;;
76196;SDS011;64974;53.144;17.962;2023-01-23T00:40:34;18.40;;;9.07;;
76196;SDS011;64974;53.144;17.962;2023-01-23T00:42:59;13.23;;;7.97;;
76196;SDS011;64974;53.144;17.962;2023-01-23T00:45:24;21.30;;;8.87;;
76196;SDS011;64974;53.144;17.962;2023-01-23T00:47:49;13.70;;;7.60;;
76196;SDS011;64974;53.144;17.962;2023-01-23T00:50:15;17.45;;;8.70;;
76196;SDS011;64974;53.144;17.962;2023-01-23T00:52:40;16.80;;;8.88;;
76196;SDS011;64974;53.144;17.962;2023-01-23T00:55:06;16.33;;;7.27;;
76196;SDS011;64974;53.144;17.962;2023-01-23T00:57:32;17.02;;;7.40;;
76196;SDS011;64974;53.144;17.962;2023-01-23T00:59:57;20.57;;;9.10;;
76196;SDS011;64974;53.144;17.962;2023-01-23T01:02:22;21.53;;;9.27;;
76196;SDS011;64974;53.144;17.962;2023-01-23T01:04:48;26.33;;;10.88;;
76196;SDS011;64974;53.144;17.962;2023-01-23T01:07:13;26.83;;;10.30;;
76196;SDS011;64974;53.144;17.962;2023-01-23T01:09:38;16.17;;;8.57;;
76196;SDS011;64974;53.144;17.962;2023-01-23T01:12:04;18.15;;;8.60;;
76196;SDS011;64974;53.144;17.962;2023-01-23T01:14:30;16.42;;;7.43;;
76196;SDS011;64974;53.144;17.962;2023-01-23T01:16:55;14.07;;;7.47;;
76196;SDS011;64974;53.144;17.962;2023-01-23T01:19:22;16.85;;;7.32;;
76196;SDS011;64974;53.144;17.962;2023-01-23T01:21:47;16.33;;;8.33;;
76196;SDS011;64974;53.144;17.962;2023-01-23T01:24:13;14.37;;;6.87;;
76196;SDS011;64974;53.144;17.962;2023-01-23T01:26:38;15.57;;;6.63;;
76196;SDS011;64974;53.144;17.962;2023-01-23T01:29:04;16.17;;;6.97;;
76196;SDS011;64974;53.144;17.962;2023-01-23T01:31:29;13.00;;;6.65;;
76196;SDS011;64974;53.144;17.962;2023-01-23T01:33:54;11.37;;;6.17;;
76196;SDS011;64974;53.144;17.962;2023-01-23T01:36:20;15.93;;;7.03;;
76196;SDS011;64974;53.144;17.962;2023-01-23T01:38:46;23.83;;;6.68;;
76196;SDS011;64974;53.144;17.962;2023-01-23T01:41:12;20.00;;;7.43;;
76196;SDS011;64974;53.144;17.962;2023-01-23T01:43:38;19.38;;;7.63;;
76196;SDS011;64974;53.144;17.962;2023-01-23T01:46:23;17.67;;;8.52;;
76196;SDS011;64974;53.144;17.962;2023-01-23T01:49:05;15.10;;;7.40;;
76196;SDS011;64974;53.144;17.962;2023-01-23T01:54:40;13.57;;;6.28;;
76196;SDS011;64974;53.144;17.962;2023-01-23T01:57:29;14.50;;;6.15;;
76196;SDS011;64974;53.144;17.962;2023-01-23T02:00:17;12.68;;;6.45;;
76196;SDS011;64974;53.144;17.962;2023-01-23T02:05:10;13.55;;;6.72;;
76196;SDS011;64974;53.144;17.962;2023-01-23T02:07:39;12.98;;;5.97;;
76196;SDS011;64974;53.144;17.962;2023-01-23T02:10:09;13.30;;;5.70;;
76196;SDS011;64974;53.144;17.962;2023-01-23T02:12:35;15.55;;;6.10;;
76196;SDS011;64974;53.144;17.962;2023-01-23T02:15:01;10.60;;;5.78;;
76196;SDS011;64974;53.144;17.962;2023-01-23T02:17:27;12.93;;;6.55;;
76196;SDS011;64974;53.144;17.962;2023-01-23T02:22:33;11.23;;;5.97;;
76196;SDS011;64974;53.144;17.962;2023-01-23T02:27:51;11.68;;;5.15;;
76196;SDS011;64974;53.144;17.962;2023-01-23T02:30:17;11.77;;;5.53;;
76196;SDS011;64974;53.144;17.962;2023-01-23T02:32:43;13.93;;;6.28;;
76196;SDS011;64974;53.144;17.962;2023-01-23T02:35:10;12.65;;;6.68;;
76196;SDS011;64974;53.144;17.962;2023-01-23T02:37:39;9.30;;;4.80;;
76196;SDS011;64974;53.144;17.962;2023-01-23T02:40:07;12.95;;;5.05;;
76196;SDS011;64974;53.144;17.962;2023-01-23T02:42:33;12.30;;;5.95;;
76196;SDS011;64974;53.144;17.962;2023-01-23T02:44:58;14.30;;;5.72;;
76196;SDS011;64974;53.144;17.962;2023-01-23T02:47:24;11.65;;;5.32;;
76196;SDS011;64974;53.144;17.962;2023-01-23T02:49:49;14.30;;;6.07;;
76196;SDS011;64974;53.144;17.962;2023-01-23T02:52:15;11.20;;;5.40;;
76196;SDS011;64974;53.144;17.962;2023-01-23T02:54:40;10.32;;;5.35;;
76196;SDS011;64974;53.144;17.962;2023-01-23T02:57:06;13.40;;;5.82;;
76196;SDS011;64974;53.144;17.962;2023-01-23T02:59:31;10.57;;;5.45;;
76196;SDS011;64974;53.144;17.962;2023-01-23T03:02:15;12.40;;;5.93;;
76196;SDS011;64974;53.144;17.962;2023-01-23T03:04:41;11.70;;;6.15;;
76196;SDS011;64974;53.144;17.962;2023-01-23T03:07:06;16.55;;;6.35;;
76196;SDS011;64974;53.144;17.962;2023-01-23T03:09:31;12.60;;;6.15;;
76196;SDS011;64974;53.144;17.962;2023-01-23T03:11:57;12.57;;;6.03;;
76196;SDS011;64974;53.144;17.962;2023-01-23T03:14:23;11.00;;;5.82;;
76196;SDS011;64974;53.144;17.962;2023-01-23T03:16:48;11.95;;;5.80;;
76196;SDS011;64974;53.144;17.962;2023-01-23T03:19:18;12.90;;;6.40;;
76196;SDS011;64974;53.144;17.962;2023-01-23T03:24:10;11.07;;;4.90;;
76196;SDS011;64974;53.144;17.962;2023-01-23T03:26:37;11.52;;;5.20;;
76196;SDS011;64974;53.144;17.962;2023-01-23T03:29:03;11.07;;;5.53;;
76196;SDS011;64974;53.144;17.962;2023-01-23T03:31:47;13.43;;;5.68;;
76196;SDS011;64974;53.144;17.962;2023-01-23T03:34:12;10.87;;;5.40;;
76196;SDS011;64974;53.144;17.962;2023-01-23T03:36:38;11.15;;;5.53;;
76196;SDS011;64974;53.144;17.962;2023-01-23T03:39:05;13.45;;;6.22;;
76196;SDS011;64974;53.144;17.962;2023-01-23T03:41:49;14.73;;;6.10;;
76196;SDS011;64974;53.144;17.962;2023-01-23T03:44:15;13.07;;;5.85;;
76196;SDS011;64974;53.144;17.962;2023-01-23T03:46:43;15.27;;;6.63;;
76196;SDS011;64974;53.144;17.962;2023-01-23T03:49:08;13.43;;;6.22;;
76196;SDS011;64974;53.144;17.962;2023-01-23T03:51:34;15.50;;;6.60;;
76196;SDS011;64974;53.144;17.962;2023-01-23T03:53:59;14.57;;;6.70;;
76196;SDS011;64974;53.144;17.962;2023-01-23T03:56:24;13.30;;;6.57;;
76196;SDS011;64974;53.144;17.962;2023-01-23T03:58:50;12.80;;;5.93;;
76196;SDS011;64974;53.144;17.962;2023-01-23T04:01:15;14.07;;;6.80;;
76196;SDS011;64974;53.144;17.962;2023-01-23T04:03:41;16.25;;;6.22;;
76196;SDS011;64974;53.144;17.962;2023-01-23T04:06:06;9.73;;;6.13;;
76196;SDS011;64974;53.144;17.962;2023-01-23T04:08:31;12.93;;;5.90;;
76196;SDS011;64974;53.144;17.962;2023-01-23T04:11:03;11.00;;;5.35;;
76196;SDS011;64974;53.144;17.962;2023-01-23T04:13:31;14.85;;;6.28;;
76196;SDS011;64974;53.144;17.962;2023-01-23T04:15:56;14.35;;;6.00;;
76196;SDS011;64974;53.144;17.962;2023-01-23T04:18:22;13.38;;;6.30;;
76196;SDS011;64974;53.144;17.962;2023-01-23T04:20:47;15.63;;;6.15;;
76196;SDS011;64974;53.144;17.962;2023-01-23T04:23:12;12.48;;;5.75;;
76196;SDS011;64974;53.144;17.962;2023-01-23T04:25:38;16.70;;;6.47;;
76196;SDS011;64974;53.144;17.962;2023-01-23T04:28:03;13.55;;;6.28;;
76196;SDS011;64974;53.144;17.962;2023-01-23T04:30:28;14.38;;;5.85;;
76196;SDS011;64974;53.144;17.962;2023-01-23T04:32:54;14.93;;;6.40;;
76196;SDS011;64974;53.144;17.962;2023-01-23T04:35:19;12.47;;;6.87;;
76196;SDS011;64974;53.144;17.962;2023-01-23T04:37:44;12.60;;;5.73;;
76196;SDS011;64974;53.144;17.962;2023-01-23T04:40:10;15.30;;;6.68;;
76196;SDS011;64974;53.144;17.962;2023-01-23T04:42:35;14.77;;;6.38;;
76196;SDS011;64974;53.144;17.962;2023-01-23T04:45:01;13.53;;;6.67;;
76196;SDS011;64974;53.144;17.962;2023-01-23T04:47:26;13.82;;;6.40;;
76196;SDS011;64974;53.144;17.962;2023-01-23T04:49:51;12.63;;;6.17;;
76196;SDS011;64974;53.144;17.962;2023-01-23T04:52:17;16.35;;;6.40;;
76196;SDS011;64974;53.144;17.962;2023-01-23T04:54:42;13.80;;;6.30;;
76196;SDS011;64974;53.144;17.962;2023-01-23T04:57:07;13.43;;;5.87;;
76196;SDS011;64974;53.144;17.962;2023-01-23T04:59:32;13.52;;;6.75;;
76196;SDS011;64974;53.144;17.962;2023-01-23T05:01:58;11.98;;;5.70;;
76196;SDS011;64974;53.144;17.962;2023-01-23T05:04:23;15.57;;;5.77;;
76196;SDS011;64974;53.144;17.962;2023-01-23T05:06:48;12.18;;;6.00;;
76196;SDS011;64974;53.144;17.962;2023-01-23T05:09:14;12.40;;;6.27;;
76196;SDS011;64974;53.144;17.962;2023-01-23T05:11:39;12.93;;;6.10;;
76196;SDS011;64974;53.144;17.962;2023-01-23T05:14:04;10.50;;;5.97;;
76196;SDS011;64974;53.144;17.962;2023-01-23T05:16:30;13.40;;;6.40;;
76196;SDS011;64974;53.144;17.962;2023-01-23T05:18:55;11.77;;;5.28;;
76196;SDS011;64974;53.144;17.962;2023-01-23T05:21:20;13.20;;;6.90;;
76196;SDS011;64974;53.144;17.962;2023-01-23T05:23:46;16.17;;;8.40;;
76196;SDS011;64974;53.144;17.962;2023-01-23T05:26:11;13.53;;;6.77;;
76196;SDS011;64974;53.144;17.962;2023-01-23T05:28:36;14.17;;;6.73;;
76196;SDS011;64974;53.144;17.962;2023-01-23T05:31:02;17.53;;;6.90;;
76196;SDS011;64974;53.144;17.962;2023-01-23T05:33:27;13.05;;;6.68;;
76196;SDS011;64974;53.144;17.962;2023-01-23T05:35:52;11.67;;;5.80;;
76196;SDS011;64974;53.144;17.962;2023-01-23T05:38:18;16.50;;;7.13;;
76196;SDS011;64974;53.144;17.962;2023-01-23T05:40:43;13.63;;;6.50;;
76196;SDS011;64974;53.144;17.962;2023-01-23T05:43:10;15.50;;;7.68;;
76196;SDS011;64974;53.144;17.962;2023-01-23T05:45:38;13.68;;;6.18;;
76196;SDS011;64974;53.144;17.962;2023-01-23T05:48:03;15.07;;;6.15;;
76196;SDS011;64974;53.144;17.962;2023-01-23T05:50:29;14.23;;;7.00;;
76196;SDS011;64974;53.144;17.962;2023-01-23T05:52:54;15.05;;;7.13;;
76196;SDS011;64974;53.144;17.962;2023-01-23T05:55:19;13.67;;;6.83;;
76196;SDS011;64974;53.144;17.962;2023-01-23T05:57:44;14.57;;;6.93;;
76196;SDS011;64974;53.144;17.962;2023-01-23T06:00:10;18.37;;;7.60;;
76196;SDS011;64974;53.144;17.962;2023-01-23T06:02:37;15.07;;;6.82;;
76196;SDS011;64974;53.144;17.962;2023-01-23T06:05:03;14.57;;;7.57;;
76196;SDS011;64974;53.144;17.962;2023-01-23T06:07:28;13.68;;;6.75;;
76196;SDS011;64974;53.144;17.962;2023-01-23T06:09:53;13.80;;;6.63;;
76196;SDS011;64974;53.144;17.962;2023-01-23T06:12:19;14.43;;;7.00;;
76196;SDS011;64974;53.144;17.962;2023-01-23T06:14:45;12.67;;;6.50;;
76196;SDS011;64974;53.144;17.962;2023-01-23T06:17:11;12.63;;;6.68;;
76196;SDS011;64974;53.144;17.962;2023-01-23T06:19:36;19.13;;;7.90;;
76196;SDS011;64974;53.144;17.962;2023-01-23T06:22:02;16.55;;;8.15;;
76196;SDS011;64974;53.144;17.962;2023-01-23T06:24:27;16.33;;;8.23;;
76196;SDS011;64974;53.144;17.962;2023-01-23T06:26:52;19.10;;;8.80;;
76196;SDS011;64974;53.144;17.962;2023-01-23T06:29:18;15.88;;;8.02;;
76196;SDS011;64974;53.144;17.962;2023-01-23T06:31:43;15.77;;;8.60;;
76196;SDS011;64974;53.144;17.962;2023-01-23T06:34:10;14.40;;;7.63;;
76196;SDS011;64974;53.144;17.962;2023-01-23T06:36:35;15.43;;;6.93;;
76196;SDS011;64974;53.144;17.962;2023-01-23T06:39:00;17.60;;;8.35;;
76196;SDS011;64974;53.144;17.962;2023-01-23T06:41:26;22.60;;;11.23;;
76196;SDS011;64974;53.144;17.962;2023-01-23T06:43:51;35.22;;;15.50;;
76196;SDS011;64974;53.144;17.962;2023-01-23T06:46:17;28.60;;;13.30;;
76196;SDS011;64974;53.144;17.962;2023-01-23T06:48:43;22.60;;;10.85;;
76196;SDS011;64974;53.144;17.962;2023-01-23T06:51:08;19.30;;;9.13;;
76196;SDS011;64974;53.144;17.962;2023-01-23T06:53:33;16.33;;;8.03;;
76196;SDS011;64974;53.144;17.962;2023-01-23T06:55:59;16.95;;;7.97;;
76196;SDS011;64974;53.144;17.962;2023-01-23T06:58:25;21.15;;;8.50;;
76196;SDS011;64974;53.144;17.962;2023-01-23T07:00:51;18.40;;;8.85;;
76196;SDS011;64974;53.144;17.962;2023-01-23T07:03:16;21.98;;;9.10;;
76196;SDS011;64974;53.144;17.962;2023-01-23T07:05:42;20.87;;;9.23;;
76196;SDS011;64974;53.144;17.962;2023-01-23T07:08:07;16.63;;;8.10;;
76196;SDS011;64974;53.144;17.962;2023-01-23T07:10:34;16.27;;;7.80;;
76196;SDS011;64974;53.144;17.962;2023-01-23T07:13:01;17.20;;;8.18;;
76196;SDS011;64974;53.144;17.962;2023-01-23T07:15:30;26.80;;;14.10;;
76196;SDS011;64974;53.144;17.962;2023-01-23T07:17:56;48.38;;;24.88;;
76196;SDS011;64974;53.144;17.962;2023-01-23T07:20:21;28.43;;;14.40;;
76196;SDS011;64974;53.144;17.962;2023-01-23T07:22:51;27.10;;;14.95;;
76196;SDS011;64974;53.144;17.962;2023-01-23T07:25:16;18.80;;;10.55;;
76196;SDS011;64974;53.144;17.962;2023-01-23T07:27:42;22.10;;;10.10;;
76196;SDS011;64974;53.144;17.962;2023-01-23T07:30:07;19.50;;;9.10;;
76196;SDS011;64974;53.144;17.962;2023-01-23T07:32:33;25.70;;;13.20;;
76196;SDS011;64974;53.144;17.962;2023-01-23T07:34:59;27.30;;;11.48;;
76196;SDS011;64974;53.144;17.962;2023-01-23T07:37:24;35.97;;;13.13;;
76196;SDS011;64974;53.144;17.962;2023-01-23T07:39:49;31.57;;;13.27;;
76196;SDS011;64974;53.144;17.962;2023-01-23T07:42:14;21.95;;;9.75;;
76196;SDS011;64974;53.144;17.962;2023-01-23T07:44:40;23.33;;;13.43;;
76196;SDS011;64974;53.144;17.962;2023-01-23T07:47:05;29.77;;;15.10;;
76196;SDS011;64974;53.144;17.962;2023-01-23T07:49:30;22.07;;;12.10;;
76196;SDS011;64974;53.144;17.962;2023-01-23T07:51:56;30.47;;;12.87;;
76196;SDS011;64974;53.144;17.962;2023-01-23T07:54:21;24.27;;;12.13;;
76196;SDS011;64974;53.144;17.962;2023-01-23T07:56:49;23.53;;;10.93;;
76196;SDS011;64974;53.144;17.962;2023-01-23T07:59:17;24.33;;;9.90;;
76196;SDS011;64974;53.144;17.962;2023-01-23T08:01:43;23.77;;;12.18;;
76196;SDS011;64974;53.144;17.962;2023-01-23T08:04:08;23.15;;;11.85;;
76196;SDS011;64974;53.144;17.962;2023-01-23T08:06:33;27.38;;;11.88;;
76196;SDS011;64974;53.144;17.962;2023-01-23T08:08:59;29.35;;;14.23;;
76196;SDS011;64974;53.144;17.962;2023-01-23T08:11:24;27.37;;;13.13;;
76196;SDS011;64974;53.144;17.962;2023-01-23T08:13:53;23.98;;;14.15;;
76196;SDS011;64974;53.144;17.962;2023-01-23T08:16:18;22.25;;;11.55;;
76196;SDS011;64974;53.144;17.962;2023-01-23T08:18:43;21.65;;;9.32;;
76196;SDS011;64974;53.144;17.962;2023-01-23T08:21:09;17.75;;;9.48;;
76196;SDS011;64974;53.144;17.962;2023-01-23T08:23:34;24.48;;;9.57;;
76196;SDS011;64974;53.144;17.962;2023-01-23T08:26:01;21.75;;;9.93;;
76196;SDS011;64974;53.144;17.962;2023-01-23T08:28:28;22.90;;;10.15;;
76196;SDS011;64974;53.144;17.962;2023-01-23T08:30:53;25.67;;;11.77;;
76196;SDS011;64974;53.144;17.962;2023-01-23T08:33:19;26.77;;;13.10;;
76196;SDS011;64974;53.144;17.962;2023-01-23T08:35:52;26.27;;;11.68;;
76196;SDS011;64974;53.144;17.962;2023-01-23T08:38:18;23.50;;;11.30;;
76196;SDS011;64974;53.144;17.962;2023-01-23T08:40:44;27.98;;;13.70;;
76196;SDS011;64974;53.144;17.962;2023-01-23T08:43:10;21.13;;;11.88;;
76196;SDS011;64974;53.144;17.962;2023-01-23T08:45:37;19.50;;;11.23;;
76196;SDS011;64974;53.144;17.962;2023-01-23T08:48:03;16.98;;;9.82;;
76196;SDS011;64974;53.144;17.962;2023-01-23T08:50:28;22.00;;;13.75;;
76196;SDS011;64974;53.144;17.962;2023-01-23T08:52:54;23.77;;;15.90;;
76196;SDS011;64974;53.144;17.962;2023-01-23T08:55:19;29.58;;;16.75;;
76196;SDS011;64974;53.144;17.962;2023-01-23T08:57:45;22.70;;;14.88;;
76196;SDS011;64974;53.144;17.962;2023-01-23T09:00:10;24.42;;;15.15;;
76196;SDS011;64974;53.144;17.962;2023-01-23T09:02:36;23.30;;;12.23;;
76196;SDS011;64974;53.144;17.962;2023-01-23T09:05:01;23.48;;;13.23;;
76196;SDS011;64974;53.144;17.962;2023-01-23T09:07:26;20.63;;;10.60;;
76196;SDS011;64974;53.144;17.962;2023-01-23T09:09:52;18.57;;;9.67;;
76196;SDS011;64974;53.144;17.962;2023-01-23T09:14:44;17.17;;;9.27;;
76196;SDS011;64974;53.144;17.962;2023-01-23T09:17:09;17.80;;;9.43;;
76196;SDS011;64974;53.144;17.962;2023-01-23T09:19:34;20.08;;;12.27;;
76196;SDS011;64974;53.144;17.962;2023-01-23T09:22:00;20.38;;;11.07;;
76196;SDS011;64974;53.144;17.962;2023-01-23T09:24:25;21.83;;;11.23;;
76196;SDS011;64974;53.144;17.962;2023-01-23T09:26:50;23.90;;;15.97;;
76196;SDS011;64974;53.144;17.962;2023-01-23T09:29:16;25.35;;;14.77;;
76196;SDS011;64974;53.144;17.962;2023-01-23T09:31:41;26.27;;;12.57;;
76196;SDS011;64974;53.144;17.962;2023-01-23T09:34:06;23.00;;;12.60;;
76196;SDS011;64974;53.144;17.962;2023-01-23T09:36:32;24.30;;;12.80;;
76196;SDS011;64974;53.144;17.962;2023-01-23T09:38:59;25.13;;;14.23;;
76196;SDS011;64974;53.144;17.962;2023-01-23T09:41:25;38.40;;;27.75;;
76196;SDS011;64974;53.144;17.962;2023-01-23T09:49:13;17.42;;;10.02;;
76196;SDS011;64974;53.144;17.962;2023-01-23T09:51:48;23.63;;;12.10;;
76196;SDS011;64974;53.144;17.962;2023-01-23T09:54:25;23.60;;;10.98;;
76196;SDS011;64974;53.144;17.962;2023-01-23T09:56:54;21.55;;;9.40;;
76196;SDS011;64974;53.144;17.962;2023-01-23T09:59:34;19.52;;;9.93;;
76196;SDS011;64974;53.144;17.962;2023-01-23T10:02:01;18.33;;;8.77;;
76196;SDS011;64974;53.144;17.962;2023-01-23T10:04:26;24.02;;;10.27;;
76196;SDS011;64974;53.144;17.962;2023-01-23T10:09:34;35.10;;;14.35;;
76196;SDS011;64974;53.144;17.962;2023-01-23T10:15:04;26.75;;;12.95;;
76196;SDS011;64974;53.144;17.962;2023-01-23T10:17:40;29.25;;;13.32;;
76196;SDS011;64974;53.144;17.962;2023-01-23T10:20:24;36.45;;;14.02;;
76196;SDS011;64974;53.144;17.962;2023-01-23T10:25:34;24.40;;;10.77;;
76196;SDS011;64974;53.144;17.962;2023-01-23T10:28:15;29.50;;;11.80;;
76196;SDS011;64974;53.144;17.962;2023-01-23T10:30:45;28.70;;;13.40;;
76196;SDS011;64974;53.144;17.962;2023-01-23T10:33:13;23.00;;;13.05;;
76196;SDS011;64974;53.144;17.962;2023-01-23T10:35:52;31.50;;;14.10;;
76196;SDS011;64974;53.144;17.962;2023-01-23T10:38:32;22.38;;;11.15;;
76196;SDS011;64974;53.144;17.962;2023-01-23T10:41:02;23.20;;;10.70;;
76196;SDS011;64974;53.144;17.962;2023-01-23T10:43:42;25.67;;;11.85;;
76196;SDS011;64974;53.144;17.962;2023-01-23T10:46:09;32.33;;;18.13;;
76196;SDS011;64974;53.144;17.962;2023-01-23T10:56:30;27.13;;;15.98;;
76196;SDS011;64974;53.144;17.962;2023-01-23T10:58:57;20.27;;;10.60;;
76196;SDS011;64974;53.144;17.962;2023-01-23T11:01:25;31.42;;;12.82;;
76196;SDS011;64974;53.144;17.962;2023-01-23T11:03:52;26.95;;;11.82;;
76196;SDS011;64974;53.144;17.962;2023-01-23T11:06:19;22.77;;;11.80;;
76196;SDS011;64974;53.144;17.962;2023-01-23T11:09:07;31.13;;;12.85;;
76196;SDS011;64974;53.144;17.962;2023-01-23T11:11:43;29.23;;;11.98;;
76196;SDS011;64974;53.144;17.962;2023-01-23T11:14:10;28.08;;;12.88;;
76196;SDS011;64974;53.144;17.962;2023-01-23T11:16:38;25.95;;;11.85;;
76196;SDS011;64974;53.144;17.962;2023-01-23T11:21:49;34.15;;;16.10;;
76196;SDS011;64974;53.144;17.962;2023-01-23T11:24:21;27.98;;;15.02;;
76196;SDS011;64974;53.144;17.962;2023-01-23T11:29:29;27.15;;;13.05;;
76196;SDS011;64974;53.144;17.962;2023-01-23T11:31:59;23.60;;;11.18;;
76196;SDS011;64974;53.144;17.962;2023-01-23T11:34:30;22.52;;;10.07;;
76196;SDS011;64974;53.144;17.962;2023-01-23T11:37:16;22.58;;;11.23;;
76196;SDS011;64974;53.144;17.962;2023-01-23T11:40:07;19.63;;;9.77;;
76196;SDS011;64974;53.144;17.962;2023-01-23T11:42:39;26.95;;;13.52;;
76196;SDS011;64974;53.144;17.962;2023-01-23T11:45:42;31.17;;;14.45;;
76196;SDS011;64974;53.144;17.962;2023-01-23T11:53:21;33.63;;;15.20;;
76196;SDS011;64974;53.144;17.962;2023-01-23T12:04:19;26.40;;;11.80;;
76196;SDS011;64974;53.144;17.962;2023-01-23T12:07:27;24.55;;;11.02;;
76196;SDS011;64974;53.144;17.962;2023-01-23T12:15:22;24.95;;;11.00;;
76196;SDS011;64974;53.144;17.962;2023-01-23T12:21:02;31.88;;;15.90;;
76196;SDS011;64974;53.144;17.962;2023-01-23T12:23:55;33.28;;;15.13;;
76196;SDS011;64974;53.144;17.962;2023-01-23T12:26:40;30.50;;;15.68;;
76196;SDS011;64974;53.144;17.962;2023-01-23T12:32:20;31.10;;;15.43;;
76196;SDS011;64974;53.144;17.962;2023-01-23T12:40:32;20.58;;;10.80;;
76196;SDS011;64974;53.144;17.962;2023-01-23T12:43:06;26.17;;;10.80;;
76196;SDS011;64974;53.144;17.962;2023-01-23T12:45:36;23.30;;;10.27;;
76196;SDS011;64974;53.144;17.962;2023-01-23T12:48:23;28.20;;;11.98;;
76196;SDS011;64974;53.144;17.962;2023-01-23T12:51:05;31.65;;;13.02;;
76196;SDS011;64974;53.144;17.962;2023-01-23T12:53:36;21.98;;;10.07;;
76196;SDS011;64974;53.144;17.962;2023-01-23T12:59:10;25.80;;;11.55;;
76196;SDS011;64974;53.144;17.962;2023-01-23T13:01:57;29.15;;;12.80;;
76196;SDS011;64974;53.144;17.962;2023-01-23T13:09:57;23.52;;;11.00;;
76196;SDS011;64974;53.144;17.962;2023-01-23T13:12:36;24.15;;;10.85;;
76196;SDS011;64974;53.144;17.962;2023-01-23T13:25:43;37.03;;;17.27;;
76196;SDS011;64974;53.144;17.962;2023-01-23T13:31:00;25.55;;;12.50;;
76196;SDS011;64974;53.144;17.962;2023-01-23T13:35:57;26.20;;;12.48;;
76196;SDS011;64974;53.144;17.962;2023-01-23T13:46:20;30.00;;;15.85;;
76196;SDS011;64974;53.144;17.962;2023-01-23T13:51:53;29.33;;;15.13;;
76196;SDS011;64974;53.144;17.962;2023-01-23T13:54:22;34.95;;;15.35;;
76196;SDS011;64974;53.144;17.962;2023-01-23T13:57:12;30.95;;;14.88;;
76196;SDS011;64974;53.144;17.962;2023-01-23T13:59:44;35.38;;;16.70;;
76196;SDS011;64974;53.144;17.962;2023-01-23T14:02:28;39.13;;;17.42;;
76196;SDS011;64974;53.144;17.962;2023-01-23T14:05:25;37.28;;;15.85;;
76196;SDS011;64974;53.144;17.962;2023-01-23T14:07:58;36.50;;;16.55;;
76196;SDS011;64974;53.144;17.962;2023-01-23T14:10:29;32.60;;;16.02;;
76196;SDS011;64974;53.144;17.962;2023-01-23T14:13:03;32.50;;;13.25;;
76196;SDS011;64974;53.144;17.962;2023-01-23T14:15:34;31.42;;;14.27;;
76196;SDS011;64974;53.144;17.962;2023-01-23T14:20:49;32.28;;;15.77;;
76196;SDS011;64974;53.144;17.962;2023-01-23T14:23:26;34.00;;;14.57;;
76196;SDS011;64974;53.144;17.962;2023-01-23T14:25:54;33.00;;;15.57;;
76196;SDS011;64974;53.144;17.962;2023-01-23T14:28:19;31.00;;;16.73;;
76196;SDS011;64974;53.144;17.962;2023-01-23T14:30:51;28.02;;;12.95;;
76196;SDS011;64974;53.144;17.962;2023-01-23T14:33:18;31.85;;;16.55;;
76196;SDS011;64974;53.144;17.962;2023-01-23T14:35:43;30.05;;;15.68;;
76196;SDS011;64974;53.144;17.962;2023-01-23T14:38:11;31.67;;;15.13;;
76196;SDS011;64974;53.144;17.962;2023-01-23T14:40:42;30.73;;;15.65;;
76196;SDS011;64974;53.144;17.962;2023-01-23T14:43:08;31.52;;;15.40;;
76196;SDS011;64974;53.144;17.962;2023-01-23T14:45:33;37.10;;;18.55;;
76196;SDS011;64974;53.144;17.962;2023-01-23T14:48:00;34.42;;;16.58;;
76196;SDS011;64974;53.144;17.962;2023-01-23T14:50:26;34.10;;;16.23;;
76196;SDS011;64974;53.144;17.962;2023-01-23T14:53:34;30.73;;;15.80;;
76196;SDS011;64974;53.144;17.962;2023-01-23T14:55:41;29.13;;;14.10;;
76196;SDS011;64974;53.144;17.962;2023-01-23T14:58:17;31.15;;;12.75;;
76196;SDS011;64974;53.144;17.962;2023-01-23T15:00:45;42.65;;;20.23;;
76196;SDS011;64974;53.144;17.962;2023-01-23T15:03:11;37.67;;;19.20;;
76196;SDS011;64974;53.144;17.962;2023-01-23T15:06:19;33.95;;;16.02;;
76196;SDS011;64974;53.144;17.962;2023-01-23T15:08:45;34.60;;;17.52;;
76196;SDS011;64974;53.144;17.962;2023-01-23T15:11:11;43.25;;;20.50;;
76196;SDS011;64974;53.144;17.962;2023-01-23T15:13:41;32.83;;;15.07;;
76196;SDS011;64974;53.144;17.962;2023-01-23T15:16:13;34.72;;;16.33;;
76196;SDS011;64974;53.144;17.962;2023-01-23T15:18:53;31.70;;;15.13;;
76196;SDS011;64974;53.144;17.962;2023-01-23T15:21:40;32.25;;;14.40;;
76196;SDS011;64974;53.144;17.962;2023-01-23T15:24:15;46.28;;;20.38;;
76196;SDS011;64974;53.144;17.962;2023-01-23T15:26:55;58.30;;;21.17;;
76196;SDS011;64974;53.144;17.962;2023-01-23T15:29:22;47.67;;;20.48;;
76196;SDS011;64974;53.144;17.962;2023-01-23T15:31:48;33.85;;;16.63;;
76196;SDS011;64974;53.144;17.962;2023-01-23T15:39:30;33.72;;;13.25;;
76196;SDS011;64974;53.144;17.962;2023-01-23T15:41:59;23.70;;;12.57;;
76196;SDS011;64974;53.144;17.962;2023-01-23T15:44:27;22.38;;;11.38;;
76196;SDS011;64974;53.144;17.962;2023-01-23T15:46:54;25.25;;;11.75;;
76196;SDS011;64974;53.144;17.962;2023-01-23T15:49:19;29.15;;;11.85;;
76196;SDS011;64974;53.144;17.962;2023-01-23T15:51:45;28.25;;;12.45;;
76196;SDS011;64974;53.144;17.962;2023-01-23T15:54:12;23.90;;;10.73;;
76196;SDS011;64974;53.144;17.962;2023-01-23T15:56:40;19.63;;;10.10;;
76196;SDS011;64974;53.144;17.962;2023-01-23T16:01:36;23.25;;;9.68;;
76196;SDS011;64974;53.144;17.962;2023-01-23T16:04:01;18.73;;;9.60;;
76196;SDS011;64974;53.144;17.962;2023-01-23T16:06:26;26.77;;;10.47;;
76196;SDS011;64974;53.144;17.962;2023-01-23T16:08:52;26.67;;;11.90;;
76196;SDS011;64974;53.144;17.962;2023-01-23T16:11:18;24.95;;;10.65;;
76196;SDS011;64974;53.144;17.962;2023-01-23T16:13:43;24.90;;;11.00;;
76196;SDS011;64974;53.144;17.962;2023-01-23T16:16:15;23.98;;;10.40;;
76196;SDS011;64974;53.144;17.962;2023-01-23T16:18:42;26.27;;;11.07;;
76196;SDS011;64974;53.144;17.962;2023-01-23T16:21:14;30.42;;;15.95;;
76196;SDS011;64974;53.144;17.962;2023-01-23T16:26:09;36.33;;;13.63;;